Time;durP1;ratioP1;P1;durP2;ratioP2;P2;SDS_P1;SDS_P2;PMS_P1;PMS_P2;Temp;Humidity;BMP_temperature;BMP_pressure;BME280_temperature;BME280_humidity;BME280_pressure;Samples;Min_cycle;Max_cycle;Signal;HPM_P1;HPM_P2
2022/05/01 00:00:13;;;;;;;;;;;21.00;50.40;;;;;;5095394;28;19924;-49
2022/05/01 00:02:40;;;;;;;;;;;21.00;50.40;;;;;;5095859;28;19925;-48
2022/05/01 00:05:07;;;;;;;;;;;21.00;50.40;;;;;;5095897;28;19972;-46
2022/05/01 00:07:34;;;;;;;;;;;21.00;50.40;;;;;;5095416;28;19924;-46
2022/05/01 00:10:02;;;;;;;;;;;21.00;50.40;;;;;;5080569;28;19928;-46
2022/05/01 00:12:29;;;;;;;;;;;21.00;50.40;;;;;;5075183;28;19924;-45
2022/05/01 00:14:56;;;;;;;;;;;21.00;50.40;;;;;;5075128;28;19924;-47
2022/05/01 00:17:23;;;;;;;;;;;21.00;50.40;;;;;;5075323;28;19924;-46
2022/05/01 00:19:50;;;;;;;;;;;20.90;50.40;;;;;;5075102;28;19929;-45
2022/05/01 00:22:19;;;;;;;;;;;21.00;50.60;;;;;;5082822;28;19924;-46
2022/05/01 00:24:46;;;;;;;;;;;21.00;50.40;;;;;;5095095;28;19924;-48
2022/05/01 00:27:13;;;;;;;;;;;21.00;50.40;;;;;;5095249;28;19947;-46
2022/05/01 00:29:40;;;;;;;;;;;21.00;50.40;;;;;;5095170;28;19969;-47
2022/05/01 00:32:07;;;;;;;;;;;21.00;50.40;;;;;;5085839;28;19944;-45
2022/05/01 00:37:20;;;;;;;;;;;21.00;50.40;;;;;;5074581;28;20402;-46
2022/05/01 00:39:47;;;;;;;;;;;21.00;50.40;;;;;;5085783;28;19924;-45
2022/05/01 00:42:18;;;;;;;;;;;21.00;50.40;;;;;;5094929;28;19931;-45
2022/05/01 00:44:45;;;;;;;;;;;21.00;51.00;;;;;;5094993;28;19924;-45
2022/05/01 00:47:12;;;;;;;;;;;21.00;50.40;;;;;;5094879;28;19927;-47
2022/05/01 00:49:40;;;;;;;;;;;21.00;50.40;;;;;;5094924;28;20006;-46
2022/05/01 00:52:09;;;;;;;;;;;21.00;50.50;;;;;;5094784;28;19934;-46
2022/05/01 00:54:40;;;;;;;;;;;21.00;50.40;;;;;;5094292;28;19924;-46
2022/05/01 00:57:07;;;;;;;;;;;21.00;50.40;;;;;;5094790;28;19928;-47
2022/05/01 00:59:35;;;;;;;;;;;21.00;50.50;;;;;;5094637;28;19928;-45
2022/05/01 01:02:02;;;;;;;;;;;21.00;50.50;;;;;;5094576;28;19924;-47
2022/05/01 01:04:30;;;;;;;;;;;21.00;50.50;;;;;;5094269;28;19928;-45
2022/05/01 01:06:57;;;;;;;;;;;21.00;50.40;;;;;;5094293;28;20096;-46
2022/05/01 01:09:24;;;;;;;;;;;20.90;50.40;;;;;;5084415;28;19924;-48
2022/05/01 01:12:53;;;;;;;;;;;20.90;50.40;;;;;;5056343;28;19925;-47
2022/05/01 01:14:40;;;;;;;;;;;21.00;50.40;;;;;;5073772;28;19970;-48
2022/05/01 01:17:07;;;;;;;;;;;21.00;50.40;;;;;;5074272;28;19929;-47
2022/05/01 01:19:34;;;;;;;;;;;21.00;50.50;;;;;;5073708;28;19924;-45
2022/05/01 01:22:02;;;;;;;;;;;21.00;50.40;;;;;;5078230;28;19924;-49
2022/05/01 01:24:29;;;;;;;;;;;20.90;50.40;;;;;;5072385;28;20346;-50
2022/05/01 01:26:56;;;;;;;;;;;20.90;50.40;;;;;;5073913;28;19950;-45
2022/05/01 01:32:12;;;;;;;;;;;20.90;50.40;;;;;;5053866;28;19924;-47
2022/05/01 01:34:40;;;;;;;;;;;20.90;50.40;;;;;;5053625;28;19925;-48
2022/05/01 01:37:07;;;;;;;;;;;20.90;50.40;;;;;;5053640;28;19958;-46
2022/05/01 01:39:34;;;;;;;;;;;20.90;50.40;;;;;;5053546;28;19954;-46
2022/05/01 01:42:04;;;;;;;;;;;20.90;50.40;;;;;;5053544;28;19931;-46
2022/05/01 01:44:37;;;;;;;;;;;21.00;50.50;;;;;;5053451;28;19959;-47
2022/05/01 01:47:05;;;;;;;;;;;20.90;50.40;;;;;;5053638;28;19974;-45
2022/05/01 01:49:33;;;;;;;;;;;20.90;50.40;;;;;;5059861;28;19925;-45
2022/05/01 01:52:00;;;;;;;;;;;20.90;50.40;;;;;;5073701;28;19925;-46
2022/05/01 01:54:28;;;;;;;;;;;21.00;50.50;;;;;;5073237;28;19929;-47
2022/05/01 01:56:55;;;;;;;;;;;21.00;50.50;;;;;;5073258;28;19978;-47
2022/05/01 01:59:22;;;;;;;;;;;20.90;50.40;;;;;;5073422;28;20322;-47
2022/05/01 02:01:49;;;;;;;;;;;21.00;50.50;;;;;;5073435;28;19925;-46
2022/05/01 02:04:17;;;;;;;;;;;20.90;50.40;;;;;;5073509;28;20338;-47
2022/05/01 02:06:44;;;;;;;;;;;20.90;50.40;;;;;;5073332;28;19963;-46
2022/05/01 02:09:12;;;;;;;;;;;21.00;50.50;;;;;;5065179;28;19979;-45
2022/05/01 02:11:40;;;;;;;;;;;20.90;50.40;;;;;;5053197;28;19983;-51
2022/05/01 02:14:09;;;;;;;;;;;20.90;50.40;;;;;;5053387;28;19967;-50
2022/05/01 02:16:36;;;;;;;;;;;20.90;50.40;;;;;;5052896;28;20377;-46
2022/05/01 02:19:03;;;;;;;;;;;20.90;50.40;;;;;;5052951;28;19925;-47
2022/05/01 02:21:36;;;;;;;;;;;20.90;50.40;;;;;;5053654;28;19928;-45
2022/05/01 02:24:08;;;;;;;;;;;21.00;50.50;;;;;;5079987;28;20388;-45
2022/05/01 02:26:36;;;;;;;;;;;20.90;50.40;;;;;;5073269;28;20299;-48
2022/05/01 02:29:04;;;;;;;;;;;20.90;50.40;;;;;;5073211;28;20380;-46
2022/05/01 02:31:31;;;;;;;;;;;20.90;50.40;;;;;;5077385;28;19931;-46
2022/05/01 02:33:58;;;;;;;;;;;20.90;50.40;;;;;;5078443;28;20372;-47
2022/05/01 02:36:25;;;;;;;;;;;20.90;50.40;;;;;;5097516;28;19928;-48
2022/05/01 02:38:52;;;;;;;;;;;20.90;50.40;;;;;;5097146;28;19924;-53
2022/05/01 02:41:20;;;;;;;;;;;20.90;50.40;;;;;;5097070;28;19974;-51
2022/05/01 02:43:47;;;;;;;;;;;20.90;50.40;;;;;;5097444;28;19928;-53
2022/05/01 02:46:15;;;;;;;;;;;20.90;50.40;;;;;;5097211;28;19924;-48
2022/05/01 02:48:43;;;;;;;;;;;20.90;50.40;;;;;;5097415;28;20288;-48
2022/05/01 02:51:10;;;;;;;;;;;20.90;50.40;;;;;;5096888;28;19927;-52
2022/05/01 02:53:38;;;;;;;;;;;20.90;50.40;;;;;;5097147;28;20244;-51
2022/05/01 02:56:05;;;;;;;;;;;20.90;50.40;;;;;;5097080;28;19924;-51
2022/05/01 02:58:32;;;;;;;;;;;20.90;50.40;;;;;;5096972;28;19977;-53
2022/05/01 03:01:00;;;;;;;;;;;20.90;50.40;;;;;;5097101;28;20315;-52
2022/05/01 03:03:27;;;;;;;;;;;20.90;50.40;;;;;;5097239;28;19977;-50
2022/05/01 03:05:56;;;;;;;;;;;20.90;50.40;;;;;;5096895;28;19973;-51
2022/05/01 03:08:23;;;;;;;;;;;20.90;50.40;;;;;;5094910;28;19932;-53
2022/05/01 03:11:01;;;;;;;;;;;20.90;50.40;;;;;;5076863;28;19928;-52
2022/05/01 03:13:28;;;;;;;;;;;20.90;50.40;;;;;;5076248;28;19925;-52
2022/05/01 03:15:55;;;;;;;;;;;20.90;51.00;;;;;;5076296;28;19932;-54
2022/05/01 03:23:53;;;;;;;;;;;20.90;50.40;;;;;;5075920;28;19954;-55
2022/05/01 03:26:20;;;;;;;;;;;20.90;50.40;;;;;;5076224;28;20297;-50
2022/05/01 03:28:48;;;;;;;;;;;20.90;50.40;;;;;;5089671;28;19928;-49
2022/05/01 03:31:15;;;;;;;;;;;20.90;50.40;;;;;;5096069;28;19924;-51
2022/05/01 03:33:44;;;;;;;;;;;20.90;50.40;;;;;;5096429;28;19924;-50
2022/05/01 03:36:12;;;;;;;;;;;20.90;50.40;;;;;;5096076;28;19928;-52
2022/05/01 03:38:40;;;;;;;;;;;20.90;50.40;;;;;;5096644;28;19924;-55
2022/05/01 03:41:08;;;;;;;;;;;20.90;50.40;;;;;;5096421;28;19932;-52
2022/05/01 03:43:36;;;;;;;;;;;20.90;50.40;;;;;;5095377;28;19924;-48
2022/05/01 03:46:04;;;;;;;;;;;20.90;50.40;;;;;;5095944;28;19925;-54
2022/05/01 03:48:32;;;;;;;;;;;20.90;50.40;;;;;;5095853;28;19925;-52
2022/05/01 03:50:59;;;;;;;;;;;20.90;50.40;;;;;;5095791;28;19931;-54
2022/05/01 03:53:26;;;;;;;;;;;20.90;50.40;;;;;;5095966;28;19930;-52
2022/05/01 03:55:54;;;;;;;;;;;20.90;50.40;;;;;;5095871;28;19924;-52
2022/05/01 03:58:21;;;;;;;;;;;20.90;50.40;;;;;;5095983;28;19947;-54
2022/05/01 04:00:48;;;;;;;;;;;20.90;50.40;;;;;;5095981;28;20307;-52
2022/05/01 04:03:15;;;;;;;;;;;20.90;50.40;;;;;;5095874;28;20132;-54
2022/05/01 04:05:43;;;;;;;;;;;20.90;50.40;;;;;;5095591;28;19924;-49
2022/05/01 04:08:10;;;;;;;;;;;20.90;50.40;;;;;;5095785;28;19932;-53
2022/05/01 04:10:38;;;;;;;;;;;20.90;50.40;;;;;;5075341;28;19925;-49
2022/05/01 04:13:06;;;;;;;;;;;20.90;50.40;;;;;;5075819;28;19932;-51
2022/05/01 04:15:33;;;;;;;;;;;20.90;50.40;;;;;;5057702;28;19925;-51
2022/05/01 04:18:02;;;;;;;;;;;20.90;50.40;;;;;;5092452;28;20344;-52
2022/05/01 04:20:29;;;;;;;;;;;20.90;50.30;;;;;;5095254;28;19932;-51
2022/05/01 04:22:56;;;;;;;;;;;21.00;50.40;;;;;;5095444;28;19931;-51
2022/05/01 04:25:24;;;;;;;;;;;20.90;50.30;;;;;;5093683;28;19924;-47
2022/05/01 04:27:56;;;;;;;;;;;21.00;50.40;;;;;;5094999;28;19924;-51
2022/05/01 04:30:26;;;;;;;;;;;20.90;50.30;;;;;;5095064;28;19928;-52
2022/05/01 04:32:57;;;;;;;;;;;21.00;50.40;;;;;;5095156;28;20011;-49
2022/05/01 04:35:31;;;;;;;;;;;20.90;50.30;;;;;;5077509;28;19924;-46
2022/05/01 04:38:00;;;;;;;;;;;20.90;50.30;;;;;;5095495;28;19951;-46
2022/05/01 04:40:33;;;;;;;;;;;21.00;50.40;;;;;;5094793;28;19924;-46
2022/05/01 04:43:04;;;;;;;;;;;21.00;50.40;;;;;;5095439;28;19931;-46
2022/05/01 04:45:31;;;;;;;;;;;21.00;50.40;;;;;;5094985;28;19928;-46
2022/05/01 04:47:59;;;;;;;;;;;21.00;50.40;;;;;;5095154;28;19928;-46
2022/05/01 04:50:26;;;;;;;;;;;21.00;50.40;;;;;;5076830;28;19924;-45
2022/05/01 04:52:54;;;;;;;;;;;21.00;50.40;;;;;;5094784;28;19928;-44
2022/05/01 04:55:21;;;;;;;;;;;21.00;50.40;;;;;;5093776;28;19970;-47
2022/05/01 04:57:49;;;;;;;;;;;21.00;50.40;;;;;;5094410;28;19925;-45
2022/05/01 05:00:19;;;;;;;;;;;21.00;50.40;;;;;;5094270;28;19923;-47
2022/05/01 05:02:48;;;;;;;;;;;21.00;50.30;;;;;;5094650;28;19928;-46
2022/05/01 05:05:17;;;;;;;;;;;21.10;50.40;;;;;;5094678;28;20300;-46
2022/05/01 05:07:44;;;;;;;;;;;21.00;50.30;;;;;;5094506;28;19924;-48
2022/05/01 05:10:12;;;;;;;;;;;21.00;50.30;;;;;;5094295;28;19924;-45
2022/05/01 05:12:42;;;;;;;;;;;21.00;50.30;;;;;;5094622;28;19927;-45
2022/05/01 05:15:10;;;;;;;;;;;21.00;50.50;;;;;;5094425;28;19928;-46
2022/05/01 05:17:37;;;;;;;;;;;21.00;50.20;;;;;;5094467;28;19924;-46
2022/05/01 05:20:06;;;;;;;;;;;21.00;50.20;;;;;;5092620;28;19924;-46
2022/05/01 05:22:33;;;;;;;;;;;21.00;50.20;;;;;;5094111;28;19981;-45
2022/05/01 05:25:00;;;;;;;;;;;21.00;50.20;;;;;;5094027;28;19924;-49
2022/05/01 05:27:27;;;;;;;;;;;21.00;50.30;;;;;;5075978;28;19924;-45
2022/05/01 05:29:54;;;;;;;;;;;21.00;50.20;;;;;;5094492;28;19978;-47
2022/05/01 05:32:23;;;;;;;;;;;21.00;50.20;;;;;;5093862;28;19924;-50
2022/05/01 05:34:50;;;;;;;;;;;21.00;50.20;;;;;;5094226;28;19928;-53
2022/05/01 05:37:18;;;;;;;;;;;21.00;50.20;;;;;;5093632;28;19928;-53
2022/05/01 05:39:45;;;;;;;;;;;21.10;50.20;;;;;;5093572;28;19925;-53
2022/05/01 05:42:13;;;;;;;;;;;21.10;50.20;;;;;;5092582;28;20015;-50
2022/05/01 05:44:40;;;;;;;;;;;21.10;50.20;;;;;;5073982;28;20311;-49
2022/05/01 05:47:07;;;;;;;;;;;21.10;50.20;;;;;;5073568;28;20388;-52
2022/05/01 05:49:34;;;;;;;;;;;21.10;50.20;;;;;;5073306;28;19932;-48
2022/05/01 05:52:01;;;;;;;;;;;21.10;50.20;;;;;;5073305;28;19940;-51
2022/05/01 05:54:28;;;;;;;;;;;21.10;50.10;;;;;;5073129;28;19931;-46
2022/05/01 05:56:55;;;;;;;;;;;21.10;50.10;;;;;;5073716;28;19924;-52
2022/05/01 05:59:22;;;;;;;;;;;21.10;50.10;;;;;;5073778;28;19928;-53
2022/05/01 06:01:49;;;;;;;;;;;21.10;50.00;;;;;;5073257;28;19929;-51
2022/05/01 06:04:16;;;;;;;;;;;21.10;50.00;;;;;;5073667;28;19974;-49
2022/05/01 06:06:43;;;;;;;;;;;21.10;50.00;;;;;;5073330;28;19929;-53
2022/05/01 06:09:10;;;;;;;;;;;21.10;50.00;;;;;;5078491;28;19924;-53
2022/05/01 06:11:38;;;;;;;;;;;21.10;50.00;;;;;;5093430;28;19924;-50
2022/05/01 06:14:05;;;;;;;;;;;21.10;50.00;;;;;;5093506;28;19924;-53
2022/05/01 06:16:32;;;;;;;;;;;21.20;50.10;;;;;;5074324;28;19951;-52
2022/05/01 06:18:59;;;;;;;;;;;21.10;50.00;;;;;;5093377;28;19928;-46
2022/05/01 06:21:27;;;;;;;;;;;21.10;50.00;;;;;;5092792;28;20397;-47
2022/05/01 06:23:53;;;;;;;;;;;21.20;50.10;;;;;;5093301;28;19924;-48
2022/05/01 06:26:21;;;;;;;;;;;21.10;50.00;;;;;;5093403;28;19924;-47
2022/05/01 06:28:52;;;;;;;;;;;21.20;50.10;;;;;;5093744;28;19931;-46
2022/05/01 06:31:19;;;;;;;;;;;21.20;50.10;;;;;;5093284;28;19924;-46
2022/05/01 06:33:46;;;;;;;;;;;21.10;50.00;;;;;;5093595;28;19947;-47
2022/05/01 06:36:17;;;;;;;;;;;21.10;49.90;;;;;;5093022;28;19928;-49
2022/05/01 06:38:44;;;;;;;;;;;21.20;50.00;;;;;;5089185;28;19925;-46
2022/05/01 06:41:12;;;;;;;;;;;21.20;50.00;;;;;;5073204;28;19931;-51
2022/05/01 06:43:39;;;;;;;;;;;21.20;49.90;;;;;;5055590;28;19924;-47
2022/05/01 06:46:06;;;;;;;;;;;21.20;49.90;;;;;;5073095;28;19928;-48
2022/05/01 06:48:33;;;;;;;;;;;21.20;49.90;;;;;;5073255;28;19928;-46
2022/05/01 06:51:00;;;;;;;;;;;21.30;49.90;;;;;;5073037;28;20045;-50
2022/05/01 06:53:27;;;;;;;;;;;21.30;49.90;;;;;;5072567;28;19925;-52
2022/05/01 06:55:55;;;;;;;;;;;21.30;49.80;;;;;;5073327;28;19977;-47
2022/05/01 06:58:22;;;;;;;;;;;21.30;49.80;;;;;;5072837;28;20379;-48
2022/05/01 07:00:51;;;;;;;;;;;21.30;49.70;;;;;;5072726;28;19931;-46
2022/05/01 07:03:19;;;;;;;;;;;21.40;49.80;;;;;;5073190;28;19924;-47
2022/05/01 07:05:47;;;;;;;;;;;21.40;49.70;;;;;;5081391;28;19931;-49
2022/05/01 07:08:14;;;;;;;;;;;21.40;49.60;;;;;;5092573;28;19924;-49
2022/05/01 07:10:41;;;;;;;;;;;21.40;49.60;;;;;;5072816;28;19925;-50
2022/05/01 07:13:09;;;;;;;;;;;21.40;49.60;;;;;;5080257;28;19924;-49
2022/05/01 07:15:38;;;;;;;;;;;21.40;49.50;;;;;;5092489;28;19924;-47
2022/05/01 07:18:05;;;;;;;;;;;21.40;49.40;;;;;;5092700;28;19925;-49
2022/05/01 07:20:35;;;;;;;;;;;21.50;49.50;;;;;;5096456;28;19985;-47
2022/05/01 07:23:02;;;;;;;;;;;21.50;49.40;;;;;;5096205;28;19930;-49
2022/05/01 07:25:30;;;;;;;;;;;21.50;49.40;;;;;;5078559;28;20342;-47
2022/05/01 07:27:57;;;;;;;;;;;21.50;49.30;;;;;;5096348;28;19931;-47
2022/05/01 07:30:24;;;;;;;;;;;21.50;49.30;;;;;;5096323;28;19924;-50
2022/05/01 07:32:51;;;;;;;;;;;21.60;49.30;;;;;;5096510;28;19924;-47
2022/05/01 07:35:18;;;;;;;;;;;21.60;49.20;;;;;;5095946;28;19931;-46
2022/05/01 07:37:45;;;;;;;;;;;21.60;49.10;;;;;;5096396;28;20276;-47
2022/05/01 07:40:12;;;;;;;;;;;21.70;49.10;;;;;;5096222;28;19927;-46
2022/05/01 07:42:39;;;;;;;;;;;21.70;49.00;;;;;;5096490;28;20338;-47
2022/05/01 07:45:06;;;;;;;;;;;21.70;49.00;;;;;;5096336;28;19931;-46
2022/05/01 07:47:33;;;;;;;;;;;21.70;48.90;;;;;;5095826;28;19981;-46
2022/05/01 07:50:00;;;;;;;;;;;21.70;48.80;;;;;;5096123;28;19951;-46
2022/05/01 07:52:27;;;;;;;;;;;21.80;48.80;;;;;;5095722;28;20307;-50
2022/05/01 07:54:54;;;;;;;;;;;21.80;48.70;;;;;;5096022;28;20273;-47
2022/05/01 07:57:26;;;;;;;;;;;21.80;48.60;;;;;;5078095;28;19924;-46
2022/05/01 07:59:54;;;;;;;;;;;21.80;48.60;;;;;;5096110;28;20291;-47
2022/05/01 08:02:21;;;;;;;;;;;21.90;49.20;;;;;;5084219;28;19990;-47
2022/05/01 08:04:48;;;;;;;;;;;21.90;48.50;;;;;;5075526;28;20407;-47
2022/05/01 08:07:15;;;;;;;;;;;21.90;48.40;;;;;;5075414;28;19950;-48
2022/05/01 08:09:42;;;;;;;;;;;21.90;48.40;;;;;;5085786;28;19977;-47
2022/05/01 08:12:10;;;;;;;;;;;22.00;48.40;;;;;;5095483;28;19928;-46
2022/05/01 08:14:41;;;;;;;;;;;22.00;48.40;;;;;;5095534;28;20384;-47
2022/05/01 08:17:09;;;;;;;;;;;22.00;48.30;;;;;;5095550;28;19931;-46
2022/05/01 08:22:21;;;;;;;;;;;22.00;48.30;;;;;;5095001;28;19928;-46
2022/05/01 08:24:48;;;;;;;;;;;22.00;48.20;;;;;;5095182;28;19928;-47
2022/05/01 08:27:15;;;;;;;;;;;22.00;48.10;;;;;;5095225;28;19931;-48
2022/05/01 08:29:42;;;;;;;;;;;22.00;48.10;;;;;;5094952;28;20015;-47
2022/05/01 08:32:09;;;;;;;;;;;22.10;48.20;;;;;;5094174;28;19924;-49
2022/05/01 08:34:36;;;;;;;;;;;22.10;48.10;;;;;;5095343;28;20003;-48
2022/05/01 08:37:04;;;;;;;;;;;22.10;48.10;;;;;;5095254;28;20299;-46
2022/05/01 08:39:31;;;;;;;;;;;22.10;48.00;;;;;;5094794;28;19935;-46
2022/05/01 08:41:59;;;;;;;;;;;22.10;47.90;;;;;;5094741;28;19931;-46
2022/05/01 08:44:31;;;;;;;;;;;22.10;47.90;;;;;;5094951;28;20326;-48
2022/05/01 08:47:14;;;;;;;;;;;22.20;48.00;;;;;;5094686;28;19931;-46
2022/05/01 08:49:42;;;;;;;;;;;22.20;47.90;;;;;;5094928;28;20015;-49
2022/05/01 08:52:10;;;;;;;;;;;22.20;47.90;;;;;;5094908;28;19935;-54
2022/05/01 08:54:38;;;;;;;;;;;22.20;47.80;;;;;;5095139;28;19947;-54
2022/05/01 08:57:06;;;;;;;;;;;22.20;47.80;;;;;;5094657;28;19924;-52
2022/05/01 08:59:34;;;;;;;;;;;22.30;47.80;;;;;;5074959;28;19928;-55
2022/05/01 09:02:01;;;;;;;;;;;22.20;47.70;;;;;;5074338;28;19924;-52
2022/05/01 09:04:29;;;;;;;;;;;22.30;47.80;;;;;;5079154;28;20395;-54
2022/05/01 09:06:56;;;;;;;;;;;22.30;47.80;;;;;;5092113;28;19964;-54
2022/05/01 09:09:23;;;;;;;;;;;22.30;47.80;;;;;;5094402;28;19924;-55
2022/05/01 09:14:37;;;;;;;;;;;22.30;47.80;;;;;;5094767;28;19924;-52
2022/05/01 09:17:23;;;;;;;;;;;22.20;47.80;;;;;;5094666;28;19924;-53
2022/05/01 09:20:05;;;;;;;;;;;22.20;47.80;;;;;;5094589;28;20430;-50
2022/05/01 09:22:46;;;;;;;;;;;22.20;47.80;;;;;;5094218;28;19927;-52
2022/05/01 09:25:23;;;;;;;;;;;22.20;47.80;;;;;;5094057;28;19954;-51
2022/05/01 09:27:57;;;;;;;;;;;22.20;47.90;;;;;;5094320;28;19928;-51
2022/05/01 09:30:33;;;;;;;;;;;22.20;47.90;;;;;;5093834;28;19966;-49
2022/05/01 09:33:00;;;;;;;;;;;22.20;47.90;;;;;;5094043;28;20387;-50
2022/05/01 09:35:32;;;;;;;;;;;22.20;48.00;;;;;;5094039;28;19931;-53
2022/05/01 09:38:09;;;;;;;;;;;22.20;48.00;;;;;;5094322;28;20329;-54
2022/05/01 09:40:36;;;;;;;;;;;22.20;48.00;;;;;;5093638;28;19928;-50
2022/05/01 09:43:03;;;;;;;;;;;22.20;48.00;;;;;;5093304;28;19928;-51
2022/05/01 09:45:31;;;;;;;;;;;22.20;48.00;;;;;;5094226;28;20007;-54
2022/05/01 09:48:19;;;;;;;;;;;22.10;47.90;;;;;;5094091;28;20284;-54
2022/05/01 09:50:47;;;;;;;;;;;22.10;47.90;;;;;;5093732;28;19928;-50
2022/05/01 09:53:14;;;;;;;;;;;22.20;48.00;;;;;;5093324;28;19924;-45
2022/05/01 09:55:41;;;;;;;;;;;22.20;48.00;;;;;;5074976;28;20438;-54
2022/05/01 09:58:09;;;;;;;;;;;22.20;48.00;;;;;;5073731;28;19925;-49
2022/05/01 10:00:38;;;;;;;;;;;22.20;48.10;;;;;;5073411;28;19925;-51
2022/05/01 10:03:19;;;;;;;;;;;22.10;48.00;;;;;;5091227;28;20288;-51
2022/05/01 10:05:46;;;;;;;;;;;22.10;48.00;;;;;;5093691;28;20390;-48
2022/05/01 10:08:15;;;;;;;;;;;22.10;48.00;;;;;;5093327;28;19925;-47
2022/05/01 10:10:44;;;;;;;;;;;22.10;48.00;;;;;;5073131;28;20400;-49
2022/05/01 10:13:11;;;;;;;;;;;22.10;48.00;;;;;;5073147;28;19981;-49
2022/05/01 10:15:59;;;;;;;;;;;22.10;47.90;;;;;;5073663;28;19928;-46
2022/05/01 10:18:26;;;;;;;;;;;22.20;48.00;;;;;;5073060;28;19955;-47
2022/05/01 10:20:53;;;;;;;;;;;22.20;48.00;;;;;;5073088;28;19970;-47
2022/05/01 10:23:21;;;;;;;;;;;22.20;47.90;;;;;;5087303;28;20399;-47
2022/05/01 10:25:51;;;;;;;;;;;22.20;47.80;;;;;;5093252;28;19924;-46
2022/05/01 10:28:42;;;;;;;;;;;22.20;47.80;;;;;;5093662;28;20411;-48
2022/05/01 10:34:13;;;;;;;;;;;22.30;47.80;;;;;;5093373;28;19977;-45
2022/05/01 10:36:58;;;;;;;;;;;22.30;47.80;;;;;;5093159;28;19930;-47
2022/05/01 10:39:28;;;;;;;;;;;22.20;47.80;;;;;;5093115;28;19924;-48
2022/05/01 10:41:56;;;;;;;;;;;22.30;47.90;;;;;;5093471;28;20292;-48
2022/05/01 10:44:29;;;;;;;;;;;22.20;47.80;;;;;;5093040;28;20395;-48
2022/05/01 10:47:12;;;;;;;;;;;22.20;47.90;;;;;;5093667;28;19924;-47
2022/05/01 10:49:41;;;;;;;;;;;22.10;47.90;;;;;;5093006;28;19968;-48
2022/05/01 10:52:19;;;;;;;;;;;22.10;48.00;;;;;;5073043;28;19931;-50
2022/05/01 10:54:49;;;;;;;;;;;22.10;48.10;;;;;;5075656;28;19924;-52
2022/05/01 10:57:17;;;;;;;;;;;22.10;48.10;;;;;;5076928;28;19974;-50
2022/05/01 10:59:48;;;;;;;;;;;22.10;48.20;;;;;;5096728;28;19970;-47
2022/05/01 11:02:19;;;;;;;;;;;22.10;48.20;;;;;;5096899;28;19924;-48
2022/05/01 11:04:47;;;;;;;;;;;22.00;48.10;;;;;;5097039;28;19931;-50
2022/05/01 11:07:15;;;;;;;;;;;22.00;48.20;;;;;;5097089;28;19928;-48
2022/05/01 11:09:46;;;;;;;;;;;22.00;48.20;;;;;;5084050;28;19924;-47
2022/05/01 11:12:15;;;;;;;;;;;22.00;48.20;;;;;;5076722;28;19924;-47
2022/05/01 11:14:51;;;;;;;;;;;22.10;48.30;;;;;;5076746;28;19924;-47
2022/05/01 11:17:29;;;;;;;;;;;22.00;48.20;;;;;;5076235;28;20391;-46
2022/05/01 11:20:03;;;;;;;;;;;22.00;48.20;;;;;;5085725;28;19931;-49
2022/05/01 11:22:31;;;;;;;;;;;22.00;48.20;;;;;;5096686;28;19928;-51
2022/05/01 11:24:58;;;;;;;;;;;22.10;48.30;;;;;;5096193;28;19925;-47
2022/05/01 11:27:25;;;;;;;;;;;22.00;48.20;;;;;;5096717;28;20007;-52
2022/05/01 11:30:07;;;;;;;;;;;22.10;48.30;;;;;;5096637;28;19928;-53
2022/05/01 11:32:54;;;;;;;;;;;22.10;48.30;;;;;;5096117;28;19924;-47
2022/05/01 11:35:41;;;;;;;;;;;22.00;48.20;;;;;;5085491;28;19925;-52
2022/05/01 11:38:08;;;;;;;;;;;22.00;48.10;;;;;;5096157;28;19928;-50
2022/05/01 11:40:35;;;;;;;;;;;22.10;48.20;;;;;;5096259;28;19928;-53
2022/05/01 11:43:19;;;;;;;;;;;22.10;48.20;;;;;;5096411;28;19924;-50
2022/05/01 11:45:46;;;;;;;;;;;22.10;48.20;;;;;;5096089;28;19931;-50
2022/05/01 11:48:14;;;;;;;;;;;22.10;48.10;;;;;;5095895;28;19924;-47
2022/05/01 11:50:45;;;;;;;;;;;22.10;48.10;;;;;;5095674;28;19932;-50
2022/05/01 11:53:16;;;;;;;;;;;22.10;48.10;;;;;;5096041;28;19947;-49
2022/05/01 12:04:21;;;;;;;;;;;22.20;47.90;;;;;;5095634;28;19974;-47
2022/05/01 12:06:48;;;;;;;;;;;22.20;47.80;;;;;;5095398;28;19963;-47
2022/05/01 12:09:18;;;;;;;;;;;22.30;47.80;;;;;;5095219;28;19924;-51
2022/05/01 12:11:46;;;;;;;;;;;22.30;47.80;;;;;;5095624;28;19954;-50
2022/05/01 12:14:13;;;;;;;;;;;22.40;47.80;;;;;;5095336;28;19924;-54
2022/05/01 12:16:40;;;;;;;;;;;22.30;47.70;;;;;;5095546;28;19924;-52
2022/05/01 12:19:08;;;;;;;;;;;22.40;47.80;;;;;;5095751;28;19947;-50
2022/05/01 12:21:35;;;;;;;;;;;22.40;47.70;;;;;;5094924;28;20387;-51
2022/05/01 12:24:03;;;;;;;;;;;22.40;47.70;;;;;;5095043;28;19931;-55
2022/05/01 12:26:33;;;;;;;;;;;22.40;47.70;;;;;;5095495;28;19990;-53
2022/05/01 12:29:00;;;;;;;;;;;22.40;47.60;;;;;;5095558;28;20338;-54
2022/05/01 12:31:28;;;;;;;;;;;22.40;47.60;;;;;;5095516;28;19924;-51
2022/05/01 12:33:55;;;;;;;;;;;22.40;47.60;;;;;;5095073;28;20387;-50
2022/05/01 12:36:24;;;;;;;;;;;22.40;47.50;;;;;;5094811;28;19928;-48
2022/05/01 12:39:01;;;;;;;;;;;22.40;47.50;;;;;;5095101;28;20440;-54
2022/05/01 12:44:33;;;;;;;;;;;22.40;47.50;;;;;;5094813;28;19971;-50
2022/05/01 12:47:00;;;;;;;;;;;22.40;47.50;;;;;;5094741;28;19924;-47
2022/05/01 12:49:30;;;;;;;;;;;22.40;47.60;;;;;;5094936;28;19925;-50
2022/05/01 12:51:57;;;;;;;;;;;22.40;47.60;;;;;;5093097;28;20376;-50
2022/05/01 12:54:24;;;;;;;;;;;22.40;47.60;;;;;;5094984;28;19947;-53
2022/05/01 12:56:51;;;;;;;;;;;22.30;47.60;;;;;;5094654;28;19928;-52
2022/05/01 12:59:27;;;;;;;;;;;22.30;47.70;;;;;;5094541;28;19941;-51
2022/05/01 13:01:56;;;;;;;;;;;22.30;47.80;;;;;;5094589;28;19932;-46
2022/05/01 13:04:24;;;;;;;;;;;22.20;47.80;;;;;;5094376;28;19932;-51
2022/05/01 13:06:52;;;;;;;;;;;22.20;47.80;;;;;;5094698;28;19971;-50
2022/05/01 13:09:19;;;;;;;;;;;22.20;47.90;;;;;;5094431;28;19924;-53
2022/05/01 13:11:59;;;;;;;;;;;22.20;48.00;;;;;;5094389;28;19931;-46
2022/05/01 13:14:30;;;;;;;;;;;22.10;48.00;;;;;;5094576;28;19932;-51
2022/05/01 13:17:10;;;;;;;;;;;22.10;48.10;;;;;;5093578;28;19924;-49
2022/05/01 13:19:39;;;;;;;;;;;22.10;48.20;;;;;;5094006;28;19924;-53
2022/05/01 13:22:07;;;;;;;;;;;22.00;48.20;;;;;;5094342;28;20310;-53
2022/05/01 13:24:39;;;;;;;;;;;22.00;48.30;;;;;;5093938;28;19928;-48
2022/05/01 13:27:07;;;;;;;;;;;22.00;48.40;;;;;;5094373;28;19924;-52
2022/05/01 13:29:35;;;;;;;;;;;21.90;48.30;;;;;;5094033;28;19925;-47
2022/05/01 13:32:03;;;;;;;;;;;21.90;48.40;;;;;;5093802;28;19928;-47
2022/05/01 13:34:30;;;;;;;;;;;21.90;48.40;;;;;;5094245;28;19924;-54
2022/05/01 13:36:59;;;;;;;;;;;21.90;48.50;;;;;;5093911;28;19924;-52
2022/05/01 13:44:59;;;;;;;;;;;21.90;48.50;;;;;;5094181;28;19924;-52
2022/05/01 13:47:27;;;;;;;;;;;21.90;48.50;;;;;;5092675;28;19981;-47
2022/05/01 13:49:55;;;;;;;;;;;21.90;48.50;;;;;;5093731;28;19924;-50
2022/05/01 13:52:23;;;;;;;;;;;21.90;48.50;;;;;;5093506;28;20405;-47
2022/05/01 13:54:51;;;;;;;;;;;21.90;48.40;;;;;;5094186;28;19924;-46
2022/05/01 13:57:19;;;;;;;;;;;21.90;48.50;;;;;;5093738;28;19924;-45
2022/05/01 13:59:46;;;;;;;;;;;22.00;48.50;;;;;;5093614;28;19978;-47
2022/05/01 14:02:14;;;;;;;;;;;22.00;48.50;;;;;;5093563;28;20283;-45
2022/05/01 14:04:43;;;;;;;;;;;22.00;48.40;;;;;;5091230;28;20023;-49
2022/05/01 14:07:10;;;;;;;;;;;22.00;48.40;;;;;;5093283;28;20390;-46
2022/05/01 14:09:37;;;;;;;;;;;22.10;48.40;;;;;;5090195;28;19924;-47
2022/05/01 14:12:06;;;;;;;;;;;22.10;48.30;;;;;;5090284;28;19977;-47
2022/05/01 14:14:33;;;;;;;;;;;22.10;48.20;;;;;;5093417;28;20292;-49
2022/05/01 14:17:00;;;;;;;;;;;22.10;48.20;;;;;;5093428;28;19924;-48
2022/05/01 14:19:29;;;;;;;;;;;22.10;48.10;;;;;;5108529;28;19924;-49
2022/05/01 14:21:56;;;;;;;;;;;22.20;48.20;;;;;;5096478;28;20298;-47
2022/05/01 14:24:45;;;;;;;;;;;22.20;48.10;;;;;;5103730;28;20045;-49
2022/05/01 14:27:12;;;;;;;;;;;22.20;48.00;;;;;;5104494;28;19924;-50
2022/05/01 14:29:39;;;;;;;;;;;22.20;48.00;;;;;;5114595;28;19924;-47
2022/05/01 14:32:11;;;;;;;;;;;22.20;48.00;;;;;;5101086;28;20440;-46
2022/05/01 14:34:42;;;;;;;;;;;22.20;48.00;;;;;;5113489;28;20352;-50
2022/05/01 14:37:24;;;;;;;;;;;22.20;48.00;;;;;;5098183;28;19938;-46
2022/05/01 14:39:53;;;;;;;;;;;22.20;48.00;;;;;;5113853;28;20414;-47
2022/05/01 14:42:22;;;;;;;;;;;22.20;47.90;;;;;;5110972;28;20348;-46
2022/05/01 14:44:51;;;;;;;;;;;22.20;47.90;;;;;;5105963;28;19973;-49
2022/05/01 14:47:24;;;;;;;;;;;22.20;47.90;;;;;;5104077;28;19931;-47
2022/05/01 14:49:54;;;;;;;;;;;22.20;47.90;;;;;;5113881;28;19977;-49
2022/05/01 14:52:21;;;;;;;;;;;22.20;47.80;;;;;;5102246;28;19924;-47
2022/05/01 14:54:49;;;;;;;;;;;22.30;47.90;;;;;;5108074;28;20395;-51
2022/05/01 14:57:20;;;;;;;;;;;22.20;47.80;;;;;;5109452;28;19928;-49
2022/05/01 15:08:24;;;;;;;;;;;22.30;47.90;;;;;;5054833;28;19932;-48
2022/05/01 15:10:51;;;;;;;;;;;22.20;47.80;;;;;;5060345;28;19962;-47